Harrisburg, Nebraska
Current Conditions -  °F | °C
As of 5:53 PM on Tuesday 21 Oct 2014 (Local Time) from KBFF Reporting Station
Broken Clouds Broken Clouds  
Wind Chill: 67°   Ceiling: 11000
Heat Index: 67°   Visibility: 8mi
Dew Point: 44°   Wind: 10mph
Humidity: 44%   Direction: 290°WNW
Pressure: 29.85"   Gusts: NA
Location:  41.56°N, 103.74°W
Report Text: KBFF 212353Z AUTO 29009KT 8SM BKN110 19/07 A2985 RMK AO2 SLP084 T01940067 10261 20189 55001
Loading
Personal Weather Stations






























Interactive Weather Map
Tropical Storm Tracking
New forecast layout! Learn more

10-Day Weather Forecast

Advertisements
Track Severe Weather on mobile